Etusivu
METAR-TAF:

METAR-TAF

Lentoasemat :

Sioux Falls, Etelä-Dakota, Yhdysvallat

Leveyspiiri: 43-34-37N, Pituuspiiri: 096-45-13W, korkeus merenpinnasta: 435 m

Tämänhetkinen sää

Tämä raportti tehtiin 35 minuuttia sitten, kello 09.56 UTC
Tuuli 3 kn pohjoisesta
Lämpötila -13°C
Kosteus 72%
Ilmanpaine 1036 hPa
Näkyvyys: 16.1 km
Pilvistä 8000 ft:n korkeudessa

METAR: KFSD 190956Z AUTO 01003KT 10SM OVC080 M13/M17 A3058 RMK AO2 SNB04E21 SLP385 P0000 T11331167

Aika: 04:31 (10:31 UTC)

Sääennuste

Tämä raportti tehtiin 5 tuntia ja 11 minuuttia sitten, kello 05.20 UTC
Ennuste voimassa 19. päivästä klo 06 UTC - 20. päivään klo 06 UTC
Tuuli 8 kn pohjoisesta/koillisesta
Näkyvyys: 10 km
Hajonneita pilviä 6000 ft:n korkeudessa
From 19. päivästä klo 1800 UTC
Tuuli 8 kn pohjoisen/luoteesta
Näkyvyys: 10 km
Hajanaisia pilviä 15000 ft:n korkeudessa

TAF: KFSD 190520Z 1906/2006 02008KT P6SM BKN060 FM191800 34008KT P6SM SCT150

Säähavainnot ja -ennusteet yli 4000 lentoasemalta (METAR- ja TAF-raportit).

Käytössä olevat sääasemat on merkitty karttaan keltaisilla ja punaisilla pisteillä.

Aseta hiiri pisteen päälle nähdäksesi sääaseman nimen.

Klikkaa sitten nähdäksesi säähavainnot ja -ennusteet.

Kartan vaihtaminen: klikkaa mustalla rastilla varustettuja vihreitä pisteitä, niin voit zoomata sisään; viivalla varustettua vihreää pistettä, niin voit zoomata ulos tai vihreitä nuolia, niin pääset viereisille kartoille.


METAR-TAF: